createdAt,value
2018-09-25T00:01:15.715Z,1.00
2018-09-25T00:03:50.264Z,1.00
2018-09-25T00:06:24.824Z,1.00
2018-09-25T00:08:59.247Z,1.10
2018-09-25T00:11:33.673Z,1.83
2018-09-25T00:14:08.151Z,2.30
2018-09-25T00:16:42.653Z,2.67
2018-09-25T00:19:17.272Z,1.27
2018-09-25T00:21:51.909Z,1.70
2018-09-25T00:24:26.319Z,1.27
2018-09-25T00:27:00.896Z,1.60
2018-09-25T00:29:35.409Z,1.30
2018-09-25T00:32:09.985Z,1.70
2018-09-25T00:34:44.369Z,1.33
2018-09-25T00:37:19.004Z,1.40
2018-09-25T00:39:53.647Z,1.20
2018-09-25T00:42:28.291Z,1.50
2018-09-25T00:45:02.927Z,1.50
2018-09-25T00:47:37.303Z,1.30
2018-09-25T00:50:11.861Z,1.40
2018-09-25T00:52:46.443Z,1.20
2018-09-25T00:55:21.067Z,1.20
2018-09-25T00:57:55.792Z,0.97
2018-09-25T01:00:30.472Z,1.00
2018-09-25T01:03:05.077Z,1.27
2018-09-25T01:05:39.659Z,0.93
2018-09-25T01:08:14.064Z,0.93
2018-09-25T01:10:48.627Z,1.20
2018-09-25T01:13:23.096Z,0.97
2018-09-25T01:15:57.465Z,1.20
2018-09-25T01:18:31.856Z,0.87
2018-09-25T01:21:06.476Z,1.00
2018-09-25T01:23:41.030Z,0.70
2018-09-25T01:26:15.634Z,1.07
2018-09-25T01:28:50.175Z,1.07
2018-09-25T01:31:24.713Z,0.77
2018-09-25T01:33:59.274Z,0.97
2018-09-25T01:36:33.843Z,1.05
2018-09-25T01:39:08.343Z,0.95
2018-09-25T01:41:42.767Z,1.30
2018-09-25T01:44:17.388Z,1.15
2018-09-25T01:46:52.114Z,1.10
2018-09-25T01:49:26.739Z,0.90
2018-09-25T01:52:01.153Z,1.20
2018-09-25T01:54:35.708Z,0.93
2018-09-25T01:57:10.125Z,1.47
2018-09-25T01:59:44.477Z,1.25
2018-09-25T02:02:19.143Z,1.10
2018-09-25T02:04:53.651Z,0.95
2018-09-25T02:07:28.318Z,0.95
2018-09-25T02:10:02.872Z,1.50
2018-09-25T02:12:37.298Z,1.20
2018-09-25T02:15:11.797Z,1.10
2018-09-25T02:17:46.484Z,0.90
2018-09-25T02:20:21.052Z,1.02
2018-09-25T02:22:55.640Z,0.80
2018-09-25T02:25:30.806Z,0.80
2018-09-25T02:28:05.260Z,1.37
2018-09-25T02:30:39.957Z,1.40
2018-09-25T02:33:14.461Z,0.60
2018-09-25T02:35:48.964Z,0.88
2018-09-25T02:38:23.622Z,1.05
2018-09-25T02:40:58.000Z,0.90
2018-09-25T02:43:32.635Z,1.37
2018-09-25T02:46:07.177Z,0.88
2018-09-25T02:48:41.813Z,0.82
2018-09-25T02:51:16.305Z,1.20
2018-09-25T02:53:50.952Z,0.70
2018-09-25T02:56:25.523Z,0.90
2018-09-25T02:59:00.137Z,0.70
2018-09-25T03:01:34.815Z,1.00
2018-09-25T03:04:09.412Z,1.00
2018-09-25T03:06:44.150Z,1.12
2018-09-25T03:09:18.706Z,0.90
2018-09-25T03:11:53.344Z,1.20
2018-09-25T03:14:27.863Z,0.62
2018-09-25T03:17:02.408Z,0.90
2018-09-25T03:19:36.972Z,0.70
2018-09-25T03:22:11.601Z,0.88
2018-09-25T03:24:46.178Z,1.00
2018-09-25T03:27:20.611Z,0.90
2018-09-25T03:29:55.206Z,0.98
2018-09-25T03:32:29.884Z,1.00
2018-09-25T03:35:04.467Z,1.10
2018-09-25T03:37:38.956Z,1.00
2018-09-25T03:40:13.502Z,1.62
2018-09-25T03:42:48.277Z,1.15
2018-09-25T03:45:23.100Z,0.95
2018-09-25T03:47:57.652Z,1.32
2018-09-25T03:50:32.248Z,1.30
2018-09-25T03:53:06.966Z,1.00
2018-09-25T03:55:41.499Z,0.90
2018-09-25T03:58:16.070Z,0.93
2018-09-25T04:00:50.629Z,1.02
2018-09-25T04:03:25.057Z,1.07
2018-09-25T04:05:59.685Z,1.12
2018-09-25T04:08:34.252Z,0.90
2018-09-25T04:11:08.734Z,1.00
2018-09-25T04:13:43.276Z,0.90
2018-09-25T04:16:17.928Z,1.15
2018-09-25T04:18:52.345Z,0.80
2018-09-25T04:21:26.820Z,1.30
2018-09-25T04:24:01.475Z,1.50
2018-09-25T04:26:36.055Z,1.57
2018-09-25T04:29:10.828Z,1.30
2018-09-25T04:31:45.601Z,1.35
2018-09-25T04:34:20.292Z,1.50
2018-09-25T04:36:55.027Z,1.32
2018-09-25T04:39:30.013Z,1.30
2018-09-25T04:42:04.519Z,1.00
2018-09-25T04:44:39.119Z,1.00
2018-09-25T04:47:13.825Z,0.78
2018-09-25T04:49:48.332Z,0.90
2018-09-25T04:52:22.933Z,0.90
2018-09-25T04:54:57.616Z,0.90
2018-09-25T04:57:32.207Z,1.00
2018-09-25T05:00:06.641Z,1.10
2018-09-25T05:02:41.198Z,0.95
2018-09-25T05:05:15.730Z,0.90
2018-09-25T05:07:50.331Z,1.20
2018-09-25T05:10:24.903Z,0.90
2018-09-25T05:12:59.547Z,1.00
2018-09-25T05:15:33.902Z,1.12
2018-09-25T05:18:08.682Z,1.17
2018-09-25T05:20:43.381Z,0.88
2018-09-25T05:23:17.970Z,1.10
2018-09-25T05:25:52.481Z,1.10
2018-09-25T05:28:27.062Z,1.12
2018-09-25T05:31:01.536Z,1.12
2018-09-25T05:33:36.152Z,1.30
2018-09-25T05:36:10.680Z,1.60
2018-09-25T05:38:45.356Z,1.80
2018-09-25T05:41:19.914Z,1.60
2018-09-25T05:43:54.492Z,1.65
2018-09-25T05:46:29.682Z,1.65
2018-09-25T05:49:04.731Z,1.37
2018-09-25T05:51:39.400Z,1.95
2018-09-25T05:54:14.179Z,2.12
2018-09-25T05:56:48.687Z,1.90
2018-09-25T05:59:23.326Z,1.55
2018-09-25T06:01:58.115Z,2.00
2018-09-25T06:04:32.740Z,1.45
2018-09-25T06:07:07.279Z,1.60
2018-09-25T06:09:41.857Z,2.00
2018-09-25T06:12:16.129Z,1.42
2018-09-25T06:14:50.791Z,1.60
2018-09-25T06:17:25.410Z,1.70
2018-09-25T06:20:00.132Z,1.60
2018-09-25T06:22:34.517Z,1.42
2018-09-25T06:25:09.077Z,1.40
2018-09-25T06:27:43.559Z,1.62
2018-09-25T06:30:18.200Z,1.60
2018-09-25T06:32:52.788Z,1.95
2018-09-25T06:35:27.321Z,1.90
2018-09-25T06:38:01.917Z,1.37
2018-09-25T06:40:36.481Z,1.37
2018-09-25T06:43:11.086Z,1.72
2018-09-25T06:45:45.693Z,1.10
2018-09-25T06:48:20.128Z,1.15
2018-09-25T06:50:54.684Z,1.20
2018-09-25T06:53:29.243Z,1.00
2018-09-25T06:56:03.741Z,1.40
2018-09-25T06:58:38.360Z,1.30
2018-09-25T07:01:12.953Z,1.95
2018-09-25T07:03:47.996Z,2.15
2018-09-25T07:06:22.439Z,1.60
2018-09-25T07:08:56.926Z,1.42
2018-09-25T07:11:31.520Z,1.65
2018-09-25T07:14:06.104Z,1.10
2018-09-25T07:16:40.704Z,1.10
2018-09-25T07:19:15.115Z,1.32
2018-09-25T07:21:49.714Z,1.25
2018-09-25T07:24:24.285Z,1.65
2018-09-25T07:26:58.917Z,1.70
2018-09-25T07:29:33.336Z,1.43
2018-09-25T07:32:07.893Z,1.20
2018-09-25T07:34:42.493Z,1.90
2018-09-25T07:37:17.170Z,1.33
2018-09-25T07:39:51.753Z,1.77
2018-09-25T07:42:26.241Z,1.33
2018-09-25T07:45:00.839Z,1.37
2018-09-25T07:47:35.559Z,1.10
2018-09-25T07:50:10.032Z,1.70
2018-09-25T07:52:44.787Z,1.60
2018-09-25T07:55:19.272Z,3.10
2018-09-25T07:57:53.825Z,2.67
2018-09-25T08:00:28.394Z,2.33
2018-09-25T08:03:03.100Z,1.73
2018-09-25T08:05:37.608Z,2.20
2018-09-25T08:08:12.537Z,1.87
2018-09-25T08:10:47.000Z,2.17
2018-09-25T08:13:21.610Z,1.40
2018-09-25T08:15:56.319Z,1.40
2018-09-25T08:18:31.387Z,1.67
2018-09-25T08:21:05.894Z,1.80
2018-09-25T08:23:40.489Z,1.30
2018-09-25T08:26:15.029Z,1.57
2018-09-25T08:28:49.543Z,1.40
2018-09-25T08:31:24.060Z,1.37
2018-09-25T08:33:58.681Z,1.40
2018-09-25T08:36:33.153Z,1.10
2018-09-25T08:39:07.656Z,1.07
2018-09-25T08:41:42.007Z,1.10
2018-09-25T08:44:16.656Z,1.23
2018-09-25T08:46:51.246Z,1.27
2018-09-25T08:49:25.760Z,1.20
2018-09-25T08:52:00.338Z,1.30
2018-09-25T08:54:34.903Z,1.20
2018-09-25T08:57:09.550Z,0.90
2018-09-25T08:59:44.000Z,0.97
2018-09-25T09:02:18.552Z,0.83
2018-09-25T09:04:53.134Z,1.00
2018-09-25T09:07:27.776Z,1.00
2018-09-25T09:10:02.423Z,0.97
2018-09-25T09:12:37.000Z,0.87
2018-09-25T09:15:11.692Z,0.77
2018-09-25T09:17:46.329Z,1.03
2018-09-25T09:20:21.002Z,0.60
2018-09-25T09:22:55.621Z,0.60
2018-09-25T09:25:30.118Z,0.87
2018-09-25T09:28:04.650Z,1.07
2018-09-25T09:30:39.333Z,0.80
2018-09-25T09:33:13.942Z,0.90
2018-09-25T09:35:48.432Z,0.83
2018-09-25T09:38:22.988Z,0.80
2018-09-25T09:40:57.634Z,0.80
2018-09-25T09:43:32.311Z,1.50
2018-09-25T09:46:06.975Z,0.90
2018-09-25T09:48:41.586Z,1.03
2018-09-25T09:51:16.151Z,1.87
2018-09-25T09:53:50.664Z,0.80
2018-09-25T09:56:25.362Z,0.63
2018-09-25T09:58:59.854Z,0.90
2018-09-25T10:01:34.318Z,1.07
2018-09-25T10:04:08.843Z,0.70
2018-09-25T10:06:43.287Z,1.10
2018-09-25T10:09:17.807Z,0.73
2018-09-25T10:11:52.295Z,0.80
2018-09-25T10:14:26.796Z,0.87
2018-09-25T10:17:01.503Z,0.90
2018-09-25T10:19:36.058Z,0.90
2018-09-25T10:22:10.684Z,0.97
2018-09-25T10:24:45.308Z,1.17
2018-09-25T10:27:20.118Z,0.93
2018-09-25T10:29:54.701Z,0.43
2018-09-25T10:32:29.513Z,1.57
2018-09-25T10:35:04.155Z,0.80
2018-09-25T10:37:38.769Z,1.00
2018-09-25T10:40:13.237Z,0.67
2018-09-25T10:42:47.670Z,1.07
2018-09-25T10:45:22.258Z,0.67
2018-09-25T10:47:56.857Z,0.87
2018-09-25T10:50:31.515Z,0.80
2018-09-25T10:53:06.023Z,0.87
2018-09-25T10:55:40.674Z,0.60
2018-09-25T10:58:15.233Z,1.10
2018-09-25T11:00:49.870Z,0.87
2018-09-25T11:03:24.512Z,1.10
2018-09-25T11:05:59.124Z,0.60
2018-09-25T11:08:33.593Z,0.90
2018-09-25T11:11:08.310Z,0.80
2018-09-25T11:13:42.873Z,0.70
2018-09-25T11:16:17.406Z,0.80
2018-09-25T11:18:52.063Z,1.03
2018-09-25T11:21:26.468Z,0.90
2018-09-25T11:24:01.863Z,1.00
2018-09-25T11:26:36.467Z,0.80
2018-09-25T11:29:11.079Z,0.77
2018-09-25T11:31:45.705Z,0.70
2018-09-25T11:34:20.339Z,0.80
2018-09-25T11:36:54.883Z,0.77
2018-09-25T11:39:29.428Z,0.77
2018-09-25T11:42:04.111Z,0.80
2018-09-25T11:44:38.821Z,0.80
2018-09-25T11:47:13.444Z,1.47
2018-09-25T11:49:47.813Z,1.40
2018-09-25T11:52:22.248Z,1.00
2018-09-25T11:54:56.952Z,1.30
2018-09-25T11:57:31.618Z,0.80
2018-09-25T12:00:06.165Z,0.60
2018-09-25T12:02:40.841Z,0.70
2018-09-25T12:05:15.292Z,0.63
2018-09-25T12:07:49.964Z,0.70
2018-09-25T12:10:24.580Z,0.80
2018-09-25T12:12:59.267Z,0.90
2018-09-25T12:15:33.920Z,0.90
2018-09-25T12:18:08.477Z,0.50
2018-09-25T12:20:43.033Z,0.70
2018-09-25T12:23:17.694Z,1.00
2018-09-25T12:25:52.067Z,0.97
2018-09-25T12:28:26.683Z,0.73
2018-09-25T12:31:01.369Z,1.00
2018-09-25T12:33:36.109Z,0.70
2018-09-25T12:36:11.151Z,0.97
2018-09-25T12:38:45.741Z,0.90
2018-09-25T12:41:20.367Z,0.80
2018-09-25T12:43:54.863Z,0.90
2018-09-25T12:46:29.343Z,1.27
2018-09-25T12:49:03.929Z,1.10
2018-09-25T12:51:38.581Z,1.17
2018-09-25T12:54:13.259Z,0.90
2018-09-25T12:56:47.892Z,0.80
2018-09-25T12:59:22.478Z,0.80
2018-09-25T13:01:56.901Z,0.60
2018-09-25T13:04:31.483Z,1.40
2018-09-25T13:07:06.108Z,0.77
2018-09-25T13:09:40.883Z,1.10
2018-09-25T13:12:15.448Z,1.10
2018-09-25T13:14:49.829Z,1.00
2018-09-25T13:17:24.479Z,0.83
2018-09-25T13:19:59.021Z,0.80
2018-09-25T13:22:33.541Z,0.67
2018-09-25T13:25:08.088Z,0.70
2018-09-25T13:27:42.673Z,0.60
2018-09-25T13:30:17.244Z,0.73
2018-09-25T13:32:51.894Z,0.90
2018-09-25T13:35:26.493Z,1.20
2018-09-25T13:38:01.087Z,0.80
2018-09-25T13:40:35.703Z,0.53
2018-09-25T13:43:10.206Z,0.70
2018-09-25T13:45:44.889Z,0.87
2018-09-25T13:48:19.518Z,0.63
2018-09-25T13:50:54.181Z,0.60
2018-09-25T13:53:28.660Z,0.80
2018-09-25T13:56:04.246Z,1.10
2018-09-25T13:58:40.722Z,0.60
2018-09-25T14:01:15.488Z,1.50
2018-09-25T14:03:50.072Z,0.70
2018-09-25T14:06:24.745Z,0.60
2018-09-25T14:08:59.308Z,0.80
2018-09-25T14:11:33.985Z,0.87
2018-09-25T14:14:08.500Z,0.70
2018-09-25T14:16:42.919Z,1.07
2018-09-25T14:19:17.499Z,1.20
2018-09-25T14:21:52.121Z,1.10
2018-09-25T14:24:26.624Z,0.80
2018-09-25T14:27:01.068Z,0.77
2018-09-25T14:29:35.584Z,0.70
2018-09-25T14:32:10.233Z,0.93
2018-09-25T14:34:44.669Z,0.97
2018-09-25T14:37:19.100Z,1.10
2018-09-25T14:39:53.721Z,1.47
2018-09-25T14:42:28.282Z,0.93
2018-09-25T14:45:02.867Z,1.00
2018-09-25T14:47:37.564Z,0.90
2018-09-25T14:50:12.327Z,0.90
2018-09-25T14:52:47.065Z,0.97
2018-09-25T14:55:21.651Z,0.80
2018-09-25T14:57:56.168Z,1.20
2018-09-25T15:00:30.845Z,0.80
2018-09-25T15:03:05.331Z,1.07
2018-09-25T15:05:39.887Z,1.30
2018-09-25T15:08:14.476Z,1.30
2018-09-25T15:10:49.153Z,1.10
2018-09-25T15:13:23.580Z,0.90
2018-09-25T15:15:58.192Z,1.10
2018-09-25T15:18:32.867Z,1.40
2018-09-25T15:21:07.437Z,0.83
2018-09-25T15:23:41.796Z,1.00
2018-09-25T15:26:16.290Z,0.90
2018-09-25T15:28:50.976Z,0.80
2018-09-25T15:31:25.604Z,1.07
2018-09-25T15:34:00.155Z,0.80
2018-09-25T15:36:34.907Z,1.23
2018-09-25T15:39:11.216Z,0.80
2018-09-25T15:41:45.884Z,1.00
2018-09-25T15:44:20.645Z,0.67
2018-09-25T15:46:55.190Z,0.90
2018-09-25T15:49:29.708Z,0.90
2018-09-25T15:52:04.295Z,0.77
2018-09-25T15:54:38.898Z,0.80
2018-09-25T15:57:13.467Z,0.70
2018-09-25T15:59:48.087Z,0.70
2018-09-25T16:02:22.663Z,1.00
2018-09-25T16:04:57.070Z,1.17
2018-09-25T16:07:31.672Z,1.30
2018-09-25T16:10:06.199Z,1.00
2018-09-25T16:12:40.855Z,0.70
2018-09-25T16:15:15.515Z,0.80
2018-09-25T16:17:49.991Z,1.10
2018-09-25T16:20:24.577Z,1.10
2018-09-25T16:23:05.860Z,0.70
2018-09-25T16:25:40.444Z,0.90
2018-09-25T16:28:15.074Z,0.53
2018-09-25T16:30:49.713Z,0.80
2018-09-25T16:33:24.282Z,0.77
2018-09-25T16:35:59.179Z,0.60
2018-09-25T16:38:33.724Z,0.70
2018-09-25T16:41:08.196Z,0.60
2018-09-25T16:43:42.844Z,0.77
2018-09-25T16:46:17.476Z,0.90
2018-09-25T16:48:52.185Z,0.80
2018-09-25T16:51:26.797Z,1.10
2018-09-25T16:54:01.394Z,0.80
2018-09-25T16:56:35.873Z,0.83
2018-09-25T16:59:10.570Z,0.80
2018-09-25T17:01:45.058Z,0.57
2018-09-25T17:04:19.605Z,0.63
2018-09-25T17:06:54.156Z,0.50
2018-09-25T17:09:28.741Z,0.88
2018-09-25T17:12:03.305Z,0.87
2018-09-25T17:14:37.743Z,0.73
2018-09-25T17:17:12.411Z,0.80
2018-09-25T17:19:46.914Z,0.60
2018-09-25T17:22:21.578Z,1.13
2018-09-25T17:24:56.387Z,0.73
2018-09-25T17:27:30.924Z,0.80
2018-09-25T17:30:05.430Z,0.70
2018-09-25T17:32:40.102Z,0.90
2018-09-25T17:35:14.627Z,0.80
2018-09-25T17:37:49.097Z,0.60
2018-09-25T17:40:23.503Z,0.70
2018-09-25T17:42:58.153Z,1.00
2018-09-25T17:45:32.791Z,0.90
2018-09-25T17:48:07.313Z,0.80
2018-09-25T17:50:41.993Z,1.20
2018-09-25T17:53:16.603Z,0.80
2018-09-25T17:55:51.162Z,1.00
2018-09-25T17:58:25.768Z,1.20
2018-09-25T18:01:00.321Z,1.27
2018-09-25T18:03:34.868Z,1.30
2018-09-25T18:06:09.445Z,0.80
2018-09-25T18:08:44.075Z,1.13
2018-09-25T18:11:18.747Z,1.20
2018-09-25T18:13:53.322Z,0.87
2018-09-25T18:16:27.829Z,1.47
2018-09-25T18:19:04.084Z,1.67
2018-09-25T18:21:38.717Z,2.07
2018-09-25T18:24:13.804Z,1.90
2018-09-25T18:26:48.380Z,1.70
2018-09-25T18:29:22.952Z,1.50
2018-09-25T18:31:59.129Z,1.70
2018-09-25T18:34:35.444Z,1.90
2018-09-25T18:37:11.777Z,1.60
2018-09-25T18:39:47.813Z,2.10
2018-09-25T18:42:23.861Z,1.60
2018-09-25T18:45:00.071Z,1.80
2018-09-25T18:47:35.996Z,1.90
2018-09-25T18:50:11.794Z,2.20
2018-09-25T18:52:48.028Z,1.73
2018-09-25T18:55:24.433Z,1.50
2018-09-25T18:57:59.838Z,1.73
2018-09-25T19:00:36.140Z,1.50
2018-09-25T19:03:13.723Z,1.40
2018-09-25T19:05:50.288Z,1.40
2018-09-25T19:08:26.614Z,1.10
2018-09-25T19:11:02.842Z,1.33
2018-09-25T19:13:39.170Z,1.07
2018-09-25T19:16:15.698Z,1.10
2018-09-25T19:18:51.885Z,1.30
2018-09-25T19:21:28.204Z,1.60
2018-09-25T19:24:04.578Z,1.47
2018-09-25T19:26:40.908Z,1.50
2018-09-25T19:29:17.269Z,1.40
2018-09-25T19:31:52.069Z,1.50
2018-09-25T19:34:26.654Z,1.57
2018-09-25T19:37:02.154Z,1.30
2018-09-25T19:39:36.827Z,1.10
2018-09-25T19:42:11.307Z,1.80
2018-09-25T19:44:46.080Z,2.03
2018-09-25T19:47:20.436Z,2.20
2018-09-25T19:49:55.016Z,2.00
2018-09-25T19:52:29.662Z,1.43
2018-09-25T19:55:04.254Z,1.67
2018-09-25T19:57:39.207Z,1.90
2018-09-25T20:00:13.847Z,2.00
2018-09-25T20:02:48.357Z,2.37
2018-09-25T20:05:22.884Z,1.87
2018-09-25T20:07:57.656Z,2.20
2018-09-25T20:10:32.326Z,2.00
2018-09-25T20:13:06.978Z,1.70
2018-09-25T20:15:41.601Z,2.40
2018-09-25T20:18:16.157Z,1.83
2018-09-25T20:20:50.678Z,1.90
2018-09-25T20:23:25.294Z,2.13
2018-09-25T20:25:59.932Z,1.90
2018-09-25T20:28:34.441Z,2.33
2018-09-25T20:31:09.029Z,1.70
2018-09-25T20:33:43.677Z,2.10
2018-09-25T20:36:18.356Z,1.87
2018-09-25T20:38:52.978Z,1.87
2018-09-25T20:41:27.478Z,2.00
2018-09-25T20:44:02.008Z,2.60
2018-09-25T20:46:36.697Z,2.63
2018-09-25T20:49:11.326Z,2.93
2018-09-25T20:51:45.819Z,2.17
2018-09-25T20:54:20.401Z,2.75
2018-09-25T20:56:55.119Z,2.00
2018-09-25T20:59:29.726Z,2.83
2018-09-25T21:02:04.242Z,2.83
2018-09-25T21:04:38.799Z,2.23
2018-09-25T21:07:13.444Z,1.72
2018-09-25T21:09:48.052Z,1.70
2018-09-25T21:12:30.157Z,1.40
2018-09-25T21:15:05.806Z,1.10
2018-09-25T21:17:40.547Z,1.30
2018-09-25T21:20:15.288Z,1.60
2018-09-25T21:22:50.039Z,1.40
2018-09-25T21:25:24.494Z,1.33
2018-09-25T21:27:59.140Z,1.77
2018-09-25T21:30:33.688Z,1.77
2018-09-25T21:33:08.338Z,1.70
2018-09-25T21:35:42.918Z,2.10
2018-09-25T21:38:17.465Z,2.20
2018-09-25T21:40:51.892Z,2.55
2018-09-25T21:43:26.455Z,2.40
2018-09-25T21:46:01.082Z,2.58
2018-09-25T21:48:35.675Z,2.53
2018-09-25T21:51:10.193Z,2.58
2018-09-25T21:53:44.772Z,2.10
2018-09-25T21:56:19.330Z,2.57
2018-09-25T21:58:54.004Z,3.87
2018-09-25T22:01:28.512Z,2.50
2018-09-25T22:04:02.952Z,2.98
2018-09-25T22:06:37.768Z,2.80
2018-09-25T22:09:13.348Z,2.20
2018-09-25T22:11:47.898Z,2.35
2018-09-25T22:14:22.406Z,2.33
2018-09-25T22:16:56.856Z,2.20
2018-09-25T22:19:31.319Z,2.10
2018-09-25T22:22:05.885Z,2.27
2018-09-25T22:24:40.635Z,2.15
2018-09-25T22:27:15.211Z,2.35
2018-09-25T22:29:49.754Z,2.20
2018-09-25T22:32:24.217Z,1.90
2018-09-25T22:34:58.820Z,2.20
2018-09-25T22:37:33.411Z,1.80
2018-09-25T22:40:07.988Z,1.65
2018-09-25T22:42:42.640Z,2.10
2018-09-25T22:45:17.538Z,1.87
2018-09-25T22:47:52.177Z,2.10
2018-09-25T22:50:26.523Z,1.67
2018-09-25T22:55:42.272Z,2.30
2018-09-25T22:58:16.701Z,1.67
2018-09-25T23:00:51.246Z,2.22
2018-09-25T23:03:25.724Z,1.60
2018-09-25T23:06:00.250Z,1.90
2018-09-25T23:08:34.925Z,1.62
2018-09-25T23:11:09.547Z,2.10
2018-09-25T23:13:43.954Z,1.82
2018-09-25T23:16:18.690Z,1.72
2018-09-25T23:18:53.116Z,1.50
2018-09-25T23:21:27.769Z,1.70
2018-09-25T23:24:02.426Z,1.32
2018-09-25T23:26:37.208Z,1.52
2018-09-25T23:29:11.760Z,1.70
2018-09-25T23:31:46.312Z,1.50
2018-09-25T23:34:20.925Z,1.90
2018-09-25T23:36:55.587Z,1.67
2018-09-25T23:49:33.094Z,1.75
2018-09-25T23:52:09.373Z,1.25
2018-09-25T23:54:47.965Z,1.30
2018-09-25T23:57:28.962Z,1.57
